Hulbert, OK (74441)

06:43 AM CST del 10 Dicembre 2016 (GMT -0600)
Shady Grove Oklahoma | | Change Station

Alt. 741 ft 35.96 °N, 95.08 °W | Updated 6 seconds ago

Coperto
Coperto
35.4 °F
Sembra 35 °F
N
0.2
Vento Variabile Vento da SE
Gusts 2.5 mph

Oggi
Massima -- | Minima -- °F
--% Possibilità di precip.
Ieri
Massima -- | Minima -- °F
Precip. -- in
Pressione 30.51 in
Visibilità 10.0 miglia
Nuvole Coperto 5000 ft
Raffreddamento del vento 35 °F
Punto di rugiada 19 °F
Umidità 50%
Piovosità 0.00 in
Spessore del manto nevoso Non disponibile.
7:20 AM 5:06 PM
Gobba a ponente, 83% visible
METAR KMKO 101153Z AUTO 14006KT 10SM OVC050 02/M05 A3049 RMK AO2 SLP329 T00171050 10017 20017 58012
Pressione 30.51 in
Visibilità 10.0 miglia
Nuvole Coperto 5000 ft
Raffreddamento del vento 35 °F
Punto di rugiada 19 °F
Umidità 50%
Piovosità 0.00 in
Spessore del manto nevoso Non disponibile.
7:20 AM 5:06 PM
Gobba a ponente, 83% visible
METAR KMKO 101153Z AUTO 14006KT 10SM OVC050 02/M05 A3049 RMK AO2 SLP329 T00171050 10017 20017 58012

10-Day Weather Forecast

Almanac

Astronomia

Dec. 10, 2016 Alba Tramonto
Ora attuale
Crepuscolo civile
Crepuscolo nautico
Crepuscolo astronomico
Luna
Estensione della luce visibile
Lunghezza del giorno
Tomorrow will be .
, % of the Moon is Illuminated

Gli estremi di oggi

State Highs State Lows

Community

WunderPhotos

Upload Photos

1,956,540 foto caricate!

WunderBlog® & News

Nearby

Qualità dell'aria

  Qualità dell'aria Indice AQ Inquinante
Not available.

Profondità neve

Stazione Profondità Altitudine

Attività sismica

Città  Distanza Mag. Data & Ora
Minimo Magnitudo Mostrato è 2.5.

Temperature delle acque costiere

Località Temperatura

Stations

Stazioni meteo nelle vicinanze

Ubicazione della stazione Temp. Raffreddamento del vento Punto di rugiada Umidità Vento Precip. Alt. Aggiornato Tipo
                   

Watches & Warnings

There are currently no watches in effect.